<?xml version="1.0" encoding="UTF-8" standalone="no" ?>
<gpx xmlns="http://www.topografix.com/GPX/1/1" xmlns:xsi="http://www.w3.org/2001/XMLSchema-instance" xsi:schemaLocation="http://www.topografix.com/GPX/1/1 http://www.topografix.com/GPX/1/1/gpx.xsd" version="1.1" creator="VisuGPX - https://www.visugpx.com">
  <metadata>
    <name>Au coeur du marais Vernier</name>
    <desc><![CDATA[Départ: Parking de l'église proche de la mairie]]></desc>
  </metadata>
  <trk>
    <name><![CDATA[20190327122244-q5z8d]]></name>
    <trkseg>
      <trkpt lat="49.41797" lon="0.45613">
        <ele>12</ele>
        <time>2019-03-27T11:39:57Z</time>
      </trkpt>
      <trkpt lat="49.41821" lon="0.45702">
        <ele>7</ele>
        <time>2019-03-27T11:40:57Z</time>
      </trkpt>
      <trkpt lat="49.41798" lon="0.45716">
        <ele>7</ele>
        <time>2019-03-27T11:41:57Z</time>
      </trkpt>
      <trkpt lat="49.41781" lon="0.45727">
        <ele>6</ele>
        <time>2019-03-27T11:42:57Z</time>
      </trkpt>
      <trkpt lat="49.41741" lon="0.45747">
        <ele>5</ele>
        <time>2019-03-27T11:43:57Z</time>
      </trkpt>
      <trkpt lat="49.41675" lon="0.45763">
        <ele>6</ele>
        <time>2019-03-27T11:44:57Z</time>
      </trkpt>
      <trkpt lat="49.41662" lon="0.4577">
        <ele>6</ele>
        <time>2019-03-27T11:45:57Z</time>
      </trkpt>
      <trkpt lat="49.41623" lon="0.45801">
        <ele>6</ele>
        <time>2019-03-27T11:46:57Z</time>
      </trkpt>
      <trkpt lat="49.41585" lon="0.45827">
        <ele>4</ele>
        <time>2019-03-27T11:47:57Z</time>
      </trkpt>
      <trkpt lat="49.41557" lon="0.4584">
        <ele>5</ele>
        <time>2019-03-27T11:48:57Z</time>
      </trkpt>
      <trkpt lat="49.41522" lon="0.45857">
        <ele>5</ele>
        <time>2019-03-27T11:49:57Z</time>
      </trkpt>
      <trkpt lat="49.41507" lon="0.45867">
        <ele>6</ele>
        <time>2019-03-27T11:50:57Z</time>
      </trkpt>
      <trkpt lat="49.41445" lon="0.45928">
        <ele>5</ele>
        <time>2019-03-27T11:51:57Z</time>
      </trkpt>
      <trkpt lat="49.41425" lon="0.45945">
        <ele>5</ele>
        <time>2019-03-27T11:52:57Z</time>
      </trkpt>
      <trkpt lat="49.41396" lon="0.45955">
        <ele>6</ele>
        <time>2019-03-27T11:53:57Z</time>
      </trkpt>
      <trkpt lat="49.41375" lon="0.45966">
        <ele>6</ele>
        <time>2019-03-27T11:54:57Z</time>
      </trkpt>
      <trkpt lat="49.41345" lon="0.45992">
        <ele>5</ele>
        <time>2019-03-27T11:55:57Z</time>
      </trkpt>
      <trkpt lat="49.41284" lon="0.46075">
        <ele>6</ele>
        <time>2019-03-27T11:56:57Z</time>
      </trkpt>
      <trkpt lat="49.41249" lon="0.46105">
        <ele>6</ele>
        <time>2019-03-27T11:57:57Z</time>
      </trkpt>
      <trkpt lat="49.41228" lon="0.46117">
        <ele>6</ele>
        <time>2019-03-27T11:58:57Z</time>
      </trkpt>
      <trkpt lat="49.41201" lon="0.46124">
        <ele>6</ele>
        <time>2019-03-27T11:59:57Z</time>
      </trkpt>
      <trkpt lat="49.41172" lon="0.46141">
        <ele>6</ele>
        <time>2019-03-27T12:00:57Z</time>
      </trkpt>
      <trkpt lat="49.41144" lon="0.46165">
        <ele>5</ele>
        <time>2019-03-27T12:01:57Z</time>
      </trkpt>
      <trkpt lat="49.41083" lon="0.46227">
        <ele>5</ele>
        <time>2019-03-27T12:02:57Z</time>
      </trkpt>
      <trkpt lat="49.41049" lon="0.46252">
        <ele>6</ele>
        <time>2019-03-27T12:03:57Z</time>
      </trkpt>
      <trkpt lat="49.41005" lon="0.46306">
        <ele>7</ele>
        <time>2019-03-27T12:04:57Z</time>
      </trkpt>
      <trkpt lat="49.40966" lon="0.46353">
        <ele>7</ele>
        <time>2019-03-27T12:05:57Z</time>
      </trkpt>
      <trkpt lat="49.40944" lon="0.4639">
        <ele>7</ele>
        <time>2019-03-27T12:06:57Z</time>
      </trkpt>
      <trkpt lat="49.40925" lon="0.46452">
        <ele>5</ele>
        <time>2019-03-27T12:07:57Z</time>
      </trkpt>
      <trkpt lat="49.40895" lon="0.46504">
        <ele>4</ele>
        <time>2019-03-27T12:08:57Z</time>
      </trkpt>
      <trkpt lat="49.40855" lon="0.4656">
        <ele>4</ele>
        <time>2019-03-27T12:09:57Z</time>
      </trkpt>
      <trkpt lat="49.40828" lon="0.46613">
        <ele>4</ele>
        <time>2019-03-27T12:10:57Z</time>
      </trkpt>
      <trkpt lat="49.40785" lon="0.46716">
        <ele>4</ele>
        <time>2019-03-27T12:11:57Z</time>
      </trkpt>
      <trkpt lat="49.40754" lon="0.46787">
        <ele>4</ele>
        <time>2019-03-27T12:12:57Z</time>
      </trkpt>
      <trkpt lat="49.40699" lon="0.46865">
        <ele>5</ele>
        <time>2019-03-27T12:13:57Z</time>
      </trkpt>
      <trkpt lat="49.40663" lon="0.46904">
        <ele>5</ele>
        <time>2019-03-27T12:14:57Z</time>
      </trkpt>
      <trkpt lat="49.40592" lon="0.46989">
        <ele>5</ele>
        <time>2019-03-27T12:15:57Z</time>
      </trkpt>
      <trkpt lat="49.40524" lon="0.47052">
        <ele>7</ele>
        <time>2019-03-27T12:16:57Z</time>
      </trkpt>
      <trkpt lat="49.4051" lon="0.47078">
        <ele>8</ele>
        <time>2019-03-27T12:17:57Z</time>
      </trkpt>
      <trkpt lat="49.40503" lon="0.47103">
        <ele>7</ele>
        <time>2019-03-27T12:18:57Z</time>
      </trkpt>
      <trkpt lat="49.40468" lon="0.47175">
        <ele>7</ele>
        <time>2019-03-27T12:19:57Z</time>
      </trkpt>
      <trkpt lat="49.40446" lon="0.47228">
        <ele>6</ele>
        <time>2019-03-27T12:20:57Z</time>
      </trkpt>
      <trkpt lat="49.40419" lon="0.47284">
        <ele>5</ele>
        <time>2019-03-27T12:21:57Z</time>
      </trkpt>
      <trkpt lat="49.404" lon="0.47319">
        <ele>6</ele>
        <time>2019-03-27T12:22:57Z</time>
      </trkpt>
      <trkpt lat="49.40392" lon="0.47359">
        <ele>6</ele>
        <time>2019-03-27T12:23:57Z</time>
      </trkpt>
      <trkpt lat="49.40357" lon="0.47325">
        <ele>10</ele>
        <time>2019-03-27T12:24:57Z</time>
      </trkpt>
      <trkpt lat="49.40369" lon="0.47278">
        <ele>11</ele>
        <time>2019-03-27T12:25:57Z</time>
      </trkpt>
      <trkpt lat="49.40375" lon="0.47227">
        <ele>13</ele>
        <time>2019-03-27T12:26:57Z</time>
      </trkpt>
      <trkpt lat="49.40372" lon="0.47165">
        <ele>18</ele>
        <time>2019-03-27T12:27:57Z</time>
      </trkpt>
      <trkpt lat="49.40398" lon="0.47068">
        <ele>20</ele>
        <time>2019-03-27T12:28:57Z</time>
      </trkpt>
      <trkpt lat="49.404" lon="0.47035">
        <ele>22</ele>
        <time>2019-03-27T12:29:57Z</time>
      </trkpt>
      <trkpt lat="49.40412" lon="0.46931">
        <ele>28</ele>
        <time>2019-03-27T12:30:57Z</time>
      </trkpt>
      <trkpt lat="49.40423" lon="0.46891">
        <ele>30</ele>
        <time>2019-03-27T12:31:57Z</time>
      </trkpt>
      <trkpt lat="49.40487" lon="0.46713">
        <ele>42</ele>
        <time>2019-03-27T12:32:57Z</time>
      </trkpt>
      <trkpt lat="49.40554" lon="0.46544">
        <ele>53</ele>
        <time>2019-03-27T12:33:57Z</time>
      </trkpt>
      <trkpt lat="49.40566" lon="0.46513">
        <ele>57</ele>
        <time>2019-03-27T12:34:57Z</time>
      </trkpt>
      <trkpt lat="49.40585" lon="0.46443">
        <ele>65</ele>
        <time>2019-03-27T12:35:57Z</time>
      </trkpt>
      <trkpt lat="49.40596" lon="0.46414">
        <ele>67</ele>
        <time>2019-03-27T12:36:57Z</time>
      </trkpt>
      <trkpt lat="49.40635" lon="0.46359">
        <ele>67</ele>
        <time>2019-03-27T12:37:57Z</time>
      </trkpt>
      <trkpt lat="49.40637" lon="0.46346">
        <ele>69</ele>
        <time>2019-03-27T12:38:57Z</time>
      </trkpt>
      <trkpt lat="49.4063" lon="0.46342">
        <ele>72</ele>
        <time>2019-03-27T12:39:57Z</time>
      </trkpt>
      <trkpt lat="49.40596" lon="0.46383">
        <ele>74</ele>
        <time>2019-03-27T12:40:57Z</time>
      </trkpt>
      <trkpt lat="49.40486" lon="0.46503">
        <ele>81</ele>
        <time>2019-03-27T12:41:57Z</time>
      </trkpt>
      <trkpt lat="49.40435" lon="0.46555">
        <ele>85</ele>
        <time>2019-03-27T12:42:57Z</time>
      </trkpt>
      <trkpt lat="49.40365" lon="0.46649">
        <ele>87</ele>
        <time>2019-03-27T12:43:57Z</time>
      </trkpt>
      <trkpt lat="49.40319" lon="0.46714">
        <ele>88</ele>
        <time>2019-03-27T12:44:57Z</time>
      </trkpt>
      <trkpt lat="49.40295" lon="0.46757">
        <ele>89</ele>
        <time>2019-03-27T12:45:57Z</time>
      </trkpt>
      <trkpt lat="49.40285" lon="0.46783">
        <ele>87</ele>
        <time>2019-03-27T12:46:57Z</time>
      </trkpt>
      <trkpt lat="49.40277" lon="0.4678">
        <ele>91</ele>
        <time>2019-03-27T12:47:57Z</time>
      </trkpt>
      <trkpt lat="49.40282" lon="0.46758">
        <ele>93</ele>
        <time>2019-03-27T12:48:57Z</time>
      </trkpt>
      <trkpt lat="49.40323" lon="0.46672">
        <ele>95</ele>
        <time>2019-03-27T12:49:57Z</time>
      </trkpt>
      <trkpt lat="49.40372" lon="0.46568">
        <ele>99</ele>
        <time>2019-03-27T12:50:57Z</time>
      </trkpt>
      <trkpt lat="49.40455" lon="0.46425">
        <ele>104</ele>
        <time>2019-03-27T12:51:57Z</time>
      </trkpt>
      <trkpt lat="49.40521" lon="0.46303">
        <ele>109</ele>
        <time>2019-03-27T12:52:57Z</time>
      </trkpt>
      <trkpt lat="49.40534" lon="0.46278">
        <ele>109</ele>
        <time>2019-03-27T12:53:57Z</time>
      </trkpt>
      <trkpt lat="49.4054" lon="0.46255">
        <ele>111</ele>
        <time>2019-03-27T12:54:57Z</time>
      </trkpt>
      <trkpt lat="49.40542" lon="0.4622">
        <ele>112</ele>
        <time>2019-03-27T12:55:57Z</time>
      </trkpt>
      <trkpt lat="49.40536" lon="0.46184">
        <ele>112</ele>
        <time>2019-03-27T12:56:57Z</time>
      </trkpt>
      <trkpt lat="49.40525" lon="0.46142">
        <ele>112</ele>
        <time>2019-03-27T12:57:57Z</time>
      </trkpt>
      <trkpt lat="49.40739" lon="0.45925">
        <ele>110</ele>
        <time>2019-03-27T12:58:57Z</time>
      </trkpt>
      <trkpt lat="49.40774" lon="0.45882">
        <ele>108</ele>
        <time>2019-03-27T12:59:57Z</time>
      </trkpt>
      <trkpt lat="49.4086" lon="0.45741">
        <ele>108</ele>
        <time>2019-03-27T13:00:57Z</time>
      </trkpt>
      <trkpt lat="49.4094" lon="0.45638">
        <ele>108</ele>
        <time>2019-03-27T13:01:57Z</time>
      </trkpt>
      <trkpt lat="49.40982" lon="0.45581">
        <ele>110</ele>
        <time>2019-03-27T13:02:57Z</time>
      </trkpt>
      <trkpt lat="49.41081" lon="0.45455">
        <ele>110</ele>
        <time>2019-03-27T13:03:57Z</time>
      </trkpt>
      <trkpt lat="49.41124" lon="0.454">
        <ele>110</ele>
        <time>2019-03-27T13:04:57Z</time>
      </trkpt>
      <trkpt lat="49.41145" lon="0.45365">
        <ele>110</ele>
        <time>2019-03-27T13:05:57Z</time>
      </trkpt>
      <trkpt lat="49.41181" lon="0.45304">
        <ele>112</ele>
        <time>2019-03-27T13:06:57Z</time>
      </trkpt>
      <trkpt lat="49.41248" lon="0.45242">
        <ele>114</ele>
        <time>2019-03-27T13:07:57Z</time>
      </trkpt>
      <trkpt lat="49.41262" lon="0.4523">
        <ele>114</ele>
        <time>2019-03-27T13:08:57Z</time>
      </trkpt>
      <trkpt lat="49.41246" lon="0.45188">
        <ele>113</ele>
        <time>2019-03-27T13:09:57Z</time>
      </trkpt>
      <trkpt lat="49.41209" lon="0.45069">
        <ele>116</ele>
        <time>2019-03-27T13:10:57Z</time>
      </trkpt>
      <trkpt lat="49.41215" lon="0.45004">
        <ele>116</ele>
        <time>2019-03-27T13:11:57Z</time>
      </trkpt>
      <trkpt lat="49.41226" lon="0.44988">
        <ele>115</ele>
        <time>2019-03-27T13:12:57Z</time>
      </trkpt>
      <trkpt lat="49.41219" lon="0.44975">
        <ele>115</ele>
        <time>2019-03-27T13:13:57Z</time>
      </trkpt>
      <trkpt lat="49.41173" lon="0.44918">
        <ele>116</ele>
        <time>2019-03-27T13:14:57Z</time>
      </trkpt>
      <trkpt lat="49.41057" lon="0.44845">
        <ele>118</ele>
        <time>2019-03-27T13:15:57Z</time>
      </trkpt>
      <trkpt lat="49.41049" lon="0.44857">
        <ele>118</ele>
        <time>2019-03-27T13:16:57Z</time>
      </trkpt>
      <trkpt lat="49.41007" lon="0.44862">
        <ele>118</ele>
        <time>2019-03-27T13:17:57Z</time>
      </trkpt>
      <trkpt lat="49.40908" lon="0.4482">
        <ele>117</ele>
        <time>2019-03-27T13:18:57Z</time>
      </trkpt>
      <trkpt lat="49.40867" lon="0.44785">
        <ele>115</ele>
        <time>2019-03-27T13:19:57Z</time>
      </trkpt>
      <trkpt lat="49.40791" lon="0.44755">
        <ele>114</ele>
        <time>2019-03-27T13:20:57Z</time>
      </trkpt>
      <trkpt lat="49.40769" lon="0.44739">
        <ele>114</ele>
        <time>2019-03-27T13:21:57Z</time>
      </trkpt>
      <trkpt lat="49.40757" lon="0.44727">
        <ele>114</ele>
        <time>2019-03-27T13:22:57Z</time>
      </trkpt>
      <trkpt lat="49.40733" lon="0.44712">
        <ele>113</ele>
        <time>2019-03-27T13:23:57Z</time>
      </trkpt>
      <trkpt lat="49.40711" lon="0.44709">
        <ele>112</ele>
        <time>2019-03-27T13:24:57Z</time>
      </trkpt>
      <trkpt lat="49.40664" lon="0.44723">
        <ele>109</ele>
        <time>2019-03-27T13:25:57Z</time>
      </trkpt>
      <trkpt lat="49.40584" lon="0.44742">
        <ele>101</ele>
        <time>2019-03-27T13:26:57Z</time>
      </trkpt>
      <trkpt lat="49.40488" lon="0.44769">
        <ele>78</ele>
        <time>2019-03-27T13:27:57Z</time>
      </trkpt>
      <trkpt lat="49.40488" lon="0.44755">
        <ele>77</ele>
        <time>2019-03-27T13:28:57Z</time>
      </trkpt>
      <trkpt lat="49.40459" lon="0.44689">
        <ele>74</ele>
        <time>2019-03-27T13:29:57Z</time>
      </trkpt>
      <trkpt lat="49.4045" lon="0.44658">
        <ele>73</ele>
        <time>2019-03-27T13:30:57Z</time>
      </trkpt>
      <trkpt lat="49.40444" lon="0.44626">
        <ele>71</ele>
        <time>2019-03-27T13:31:57Z</time>
      </trkpt>
      <trkpt lat="49.40443" lon="0.44601">
        <ele>72</ele>
        <time>2019-03-27T13:32:57Z</time>
      </trkpt>
      <trkpt lat="49.40452" lon="0.44555">
        <ele>73</ele>
        <time>2019-03-27T13:33:57Z</time>
      </trkpt>
      <trkpt lat="49.40466" lon="0.44525">
        <ele>74</ele>
        <time>2019-03-27T13:34:57Z</time>
      </trkpt>
      <trkpt lat="49.4049" lon="0.4448">
        <ele>76</ele>
        <time>2019-03-27T13:35:57Z</time>
      </trkpt>
      <trkpt lat="49.40508" lon="0.44453">
        <ele>76</ele>
        <time>2019-03-27T13:36:57Z</time>
      </trkpt>
      <trkpt lat="49.40549" lon="0.44402">
        <ele>76</ele>
        <time>2019-03-27T13:37:57Z</time>
      </trkpt>
      <trkpt lat="49.40589" lon="0.44357">
        <ele>77</ele>
        <time>2019-03-27T13:38:57Z</time>
      </trkpt>
      <trkpt lat="49.40605" lon="0.44345">
        <ele>78</ele>
        <time>2019-03-27T13:39:57Z</time>
      </trkpt>
      <trkpt lat="49.40656" lon="0.44326">
        <ele>86</ele>
        <time>2019-03-27T13:40:57Z</time>
      </trkpt>
      <trkpt lat="49.40669" lon="0.44316">
        <ele>87</ele>
        <time>2019-03-27T13:41:57Z</time>
      </trkpt>
      <trkpt lat="49.40707" lon="0.44289">
        <ele>87</ele>
        <time>2019-03-27T13:42:57Z</time>
      </trkpt>
      <trkpt lat="49.40768" lon="0.44238">
        <ele>85</ele>
        <time>2019-03-27T13:43:57Z</time>
      </trkpt>
      <trkpt lat="49.40801" lon="0.44205">
        <ele>82</ele>
        <time>2019-03-27T13:44:57Z</time>
      </trkpt>
      <trkpt lat="49.40813" lon="0.44197">
        <ele>82</ele>
        <time>2019-03-27T13:45:57Z</time>
      </trkpt>
      <trkpt lat="49.40832" lon="0.44196">
        <ele>85</ele>
        <time>2019-03-27T13:46:57Z</time>
      </trkpt>
      <trkpt lat="49.40842" lon="0.44189">
        <ele>85</ele>
        <time>2019-03-27T13:47:57Z</time>
      </trkpt>
      <trkpt lat="49.4089" lon="0.44131">
        <ele>82</ele>
        <time>2019-03-27T13:48:57Z</time>
      </trkpt>
      <trkpt lat="49.40913" lon="0.44106">
        <ele>81</ele>
        <time>2019-03-27T13:49:57Z</time>
      </trkpt>
      <trkpt lat="49.40957" lon="0.44068">
        <ele>77</ele>
        <time>2019-03-27T13:50:57Z</time>
      </trkpt>
      <trkpt lat="49.40966" lon="0.4406">
        <ele>76</ele>
        <time>2019-03-27T13:51:57Z</time>
      </trkpt>
      <trkpt lat="49.40995" lon="0.44061">
        <ele>78</ele>
        <time>2019-03-27T13:52:57Z</time>
      </trkpt>
      <trkpt lat="49.41049" lon="0.44082">
        <ele>90</ele>
        <time>2019-03-27T13:53:57Z</time>
      </trkpt>
      <trkpt lat="49.41058" lon="0.44082">
        <ele>91</ele>
        <time>2019-03-27T13:54:57Z</time>
      </trkpt>
      <trkpt lat="49.41065" lon="0.44078">
        <ele>91</ele>
        <time>2019-03-27T13:55:57Z</time>
      </trkpt>
      <trkpt lat="49.41079" lon="0.44057">
        <ele>89</ele>
        <time>2019-03-27T13:56:57Z</time>
      </trkpt>
      <trkpt lat="49.4111" lon="0.44002">
        <ele>88</ele>
        <time>2019-03-27T13:57:57Z</time>
      </trkpt>
      <trkpt lat="49.41118" lon="0.43968">
        <ele>87</ele>
        <time>2019-03-27T13:58:57Z</time>
      </trkpt>
      <trkpt lat="49.41138" lon="0.4392">
        <ele>89</ele>
        <time>2019-03-27T13:59:57Z</time>
      </trkpt>
      <trkpt lat="49.41156" lon="0.43892">
        <ele>91</ele>
        <time>2019-03-27T14:00:57Z</time>
      </trkpt>
      <trkpt lat="49.41185" lon="0.43834">
        <ele>87</ele>
        <time>2019-03-27T14:01:57Z</time>
      </trkpt>
      <trkpt lat="49.41202" lon="0.43829">
        <ele>89</ele>
        <time>2019-03-27T14:02:57Z</time>
      </trkpt>
      <trkpt lat="49.41254" lon="0.43802">
        <ele>93</ele>
        <time>2019-03-27T14:03:57Z</time>
      </trkpt>
      <trkpt lat="49.41317" lon="0.43752">
        <ele>96</ele>
        <time>2019-03-27T14:04:57Z</time>
      </trkpt>
      <trkpt lat="49.4138" lon="0.43717">
        <ele>100</ele>
        <time>2019-03-27T14:05:57Z</time>
      </trkpt>
      <trkpt lat="49.41408" lon="0.43705">
        <ele>102</ele>
        <time>2019-03-27T14:06:57Z</time>
      </trkpt>
      <trkpt lat="49.41433" lon="0.43714">
        <ele>105</ele>
        <time>2019-03-27T14:07:57Z</time>
      </trkpt>
      <trkpt lat="49.41444" lon="0.43723">
        <ele>106</ele>
        <time>2019-03-27T14:08:57Z</time>
      </trkpt>
      <trkpt lat="49.41494" lon="0.43799">
        <ele>110</ele>
        <time>2019-03-27T14:09:57Z</time>
      </trkpt>
      <trkpt lat="49.41515" lon="0.43822">
        <ele>110</ele>
        <time>2019-03-27T14:10:57Z</time>
      </trkpt>
      <trkpt lat="49.41529" lon="0.43841">
        <ele>110</ele>
        <time>2019-03-27T14:11:57Z</time>
      </trkpt>
      <trkpt lat="49.41554" lon="0.43891">
        <ele>112</ele>
        <time>2019-03-27T14:12:57Z</time>
      </trkpt>
      <trkpt lat="49.41584" lon="0.43933">
        <ele>112</ele>
        <time>2019-03-27T14:13:57Z</time>
      </trkpt>
      <trkpt lat="49.41595" lon="0.43937">
        <ele>112</ele>
        <time>2019-03-27T14:14:57Z</time>
      </trkpt>
      <trkpt lat="49.41609" lon="0.43928">
        <ele>112</ele>
        <time>2019-03-27T14:15:57Z</time>
      </trkpt>
      <trkpt lat="49.41667" lon="0.43866">
        <ele>111</ele>
        <time>2019-03-27T14:16:57Z</time>
      </trkpt>
      <trkpt lat="49.41782" lon="0.43745">
        <ele>111</ele>
        <time>2019-03-27T14:17:57Z</time>
      </trkpt>
      <trkpt lat="49.41814" lon="0.43711">
        <ele>111</ele>
        <time>2019-03-27T14:18:57Z</time>
      </trkpt>
      <trkpt lat="49.4191" lon="0.43593">
        <ele>110</ele>
        <time>2019-03-27T14:19:57Z</time>
      </trkpt>
      <trkpt lat="49.41949" lon="0.43544">
        <ele>109</ele>
        <time>2019-03-27T14:20:57Z</time>
      </trkpt>
      <trkpt lat="49.41977" lon="0.43493">
        <ele>109</ele>
        <time>2019-03-27T14:21:57Z</time>
      </trkpt>
      <trkpt lat="49.42025" lon="0.43298">
        <ele>108</ele>
        <time>2019-03-27T14:22:57Z</time>
      </trkpt>
      <trkpt lat="49.42074" lon="0.43247">
        <ele>106</ele>
        <time>2019-03-27T14:23:57Z</time>
      </trkpt>
      <trkpt lat="49.4209" lon="0.43222">
        <ele>106</ele>
        <time>2019-03-27T14:24:57Z</time>
      </trkpt>
      <trkpt lat="49.42116" lon="0.43199">
        <ele>105</ele>
        <time>2019-03-27T14:25:57Z</time>
      </trkpt>
      <trkpt lat="49.42205" lon="0.43146">
        <ele>108</ele>
        <time>2019-03-27T14:26:57Z</time>
      </trkpt>
      <trkpt lat="49.42205" lon="0.43146">
        <ele>108</ele>
        <time>2019-03-27T14:27:57Z</time>
      </trkpt>
      <trkpt lat="49.42221" lon="0.4314">
        <ele>109</ele>
        <time>2019-03-27T14:28:57Z</time>
      </trkpt>
      <trkpt lat="49.42303" lon="0.43121">
        <ele>110</ele>
        <time>2019-03-27T14:29:57Z</time>
      </trkpt>
      <trkpt lat="49.42353" lon="0.43106">
        <ele>108</ele>
        <time>2019-03-27T14:30:57Z</time>
      </trkpt>
      <trkpt lat="49.4249" lon="0.43083">
        <ele>99</ele>
        <time>2019-03-27T14:31:57Z</time>
      </trkpt>
      <trkpt lat="49.42526" lon="0.43088">
        <ele>95</ele>
        <time>2019-03-27T14:32:57Z</time>
      </trkpt>
      <trkpt lat="49.42551" lon="0.4308">
        <ele>90</ele>
        <time>2019-03-27T14:33:57Z</time>
      </trkpt>
      <trkpt lat="49.42568" lon="0.43063">
        <ele>85</ele>
        <time>2019-03-27T14:34:57Z</time>
      </trkpt>
      <trkpt lat="49.42618" lon="0.43066">
        <ele>79</ele>
        <time>2019-03-27T14:35:57Z</time>
      </trkpt>
      <trkpt lat="49.42656" lon="0.43072">
        <ele>74</ele>
        <time>2019-03-27T14:36:57Z</time>
      </trkpt>
      <trkpt lat="49.42696" lon="0.43074">
        <ele>71</ele>
        <time>2019-03-27T14:37:57Z</time>
      </trkpt>
      <trkpt lat="49.4272" lon="0.43082">
        <ele>69</ele>
        <time>2019-03-27T14:38:57Z</time>
      </trkpt>
      <trkpt lat="49.42747" lon="0.43095">
        <ele>68</ele>
        <time>2019-03-27T14:39:57Z</time>
      </trkpt>
      <trkpt lat="49.42814" lon="0.431">
        <ele>68</ele>
        <time>2019-03-27T14:40:57Z</time>
      </trkpt>
      <trkpt lat="49.42832" lon="0.43141">
        <ele>71</ele>
        <time>2019-03-27T14:41:57Z</time>
      </trkpt>
      <trkpt lat="49.42861" lon="0.43164">
        <ele>72</ele>
        <time>2019-03-27T14:42:57Z</time>
      </trkpt>
      <trkpt lat="49.42934" lon="0.43179">
        <ele>71</ele>
        <time>2019-03-27T14:43:57Z</time>
      </trkpt>
      <trkpt lat="49.42994" lon="0.43205">
        <ele>70</ele>
        <time>2019-03-27T14:44:57Z</time>
      </trkpt>
      <trkpt lat="49.43064" lon="0.43231">
        <ele>70</ele>
        <time>2019-03-27T14:45:57Z</time>
      </trkpt>
      <trkpt lat="49.43122" lon="0.43231">
        <ele>69</ele>
        <time>2019-03-27T14:46:57Z</time>
      </trkpt>
      <trkpt lat="49.43202" lon="0.43217">
        <ele>66</ele>
        <time>2019-03-27T14:47:57Z</time>
      </trkpt>
      <trkpt lat="49.43259" lon="0.43212">
        <ele>64</ele>
        <time>2019-03-27T14:48:57Z</time>
      </trkpt>
      <trkpt lat="49.43299" lon="0.43218">
        <ele>64</ele>
        <time>2019-03-27T14:49:57Z</time>
      </trkpt>
      <trkpt lat="49.43348" lon="0.43238">
        <ele>63</ele>
        <time>2019-03-27T14:50:57Z</time>
      </trkpt>
      <trkpt lat="49.43415" lon="0.43277">
        <ele>61</ele>
        <time>2019-03-27T14:51:57Z</time>
      </trkpt>
      <trkpt lat="49.43424" lon="0.43275">
        <ele>61</ele>
        <time>2019-03-27T14:52:57Z</time>
      </trkpt>
      <trkpt lat="49.43458" lon="0.43246">
        <ele>61</ele>
        <time>2019-03-27T14:53:57Z</time>
      </trkpt>
      <trkpt lat="49.43459" lon="0.43274">
        <ele>62</ele>
        <time>2019-03-27T14:54:57Z</time>
      </trkpt>
      <trkpt lat="49.43453" lon="0.43299">
        <ele>63</ele>
        <time>2019-03-27T14:55:57Z</time>
      </trkpt>
      <trkpt lat="49.43418" lon="0.43386">
        <ele>65</ele>
        <time>2019-03-27T14:56:57Z</time>
      </trkpt>
      <trkpt lat="49.43391" lon="0.43472">
        <ele>71</ele>
        <time>2019-03-27T14:57:57Z</time>
      </trkpt>
      <trkpt lat="49.4335" lon="0.43575">
        <ele>75</ele>
        <time>2019-03-27T14:58:57Z</time>
      </trkpt>
      <trkpt lat="49.43319" lon="0.43646">
        <ele>78</ele>
        <time>2019-03-27T14:59:57Z</time>
      </trkpt>
      <trkpt lat="49.43275" lon="0.43818">
        <ele>83</ele>
        <time>2019-03-27T15:00:57Z</time>
      </trkpt>
      <trkpt lat="49.43257" lon="0.43867">
        <ele>83</ele>
        <time>2019-03-27T15:01:57Z</time>
      </trkpt>
      <trkpt lat="49.43244" lon="0.43942">
        <ele>86</ele>
        <time>2019-03-27T15:02:57Z</time>
      </trkpt>
      <trkpt lat="49.43242" lon="0.44035">
        <ele>92</ele>
        <time>2019-03-27T15:03:57Z</time>
      </trkpt>
      <trkpt lat="49.43236" lon="0.44057">
        <ele>92</ele>
        <time>2019-03-27T15:04:57Z</time>
      </trkpt>
      <trkpt lat="49.43252" lon="0.44067">
        <ele>93</ele>
        <time>2019-03-27T15:05:57Z</time>
      </trkpt>
      <trkpt lat="49.43278" lon="0.44094">
        <ele>94</ele>
        <time>2019-03-27T15:06:57Z</time>
      </trkpt>
      <trkpt lat="49.43301" lon="0.44128">
        <ele>95</ele>
        <time>2019-03-27T15:07:57Z</time>
      </trkpt>
      <trkpt lat="49.43318" lon="0.44165">
        <ele>95</ele>
        <time>2019-03-27T15:08:57Z</time>
      </trkpt>
      <trkpt lat="49.43329" lon="0.44197">
        <ele>94</ele>
        <time>2019-03-27T15:09:57Z</time>
      </trkpt>
      <trkpt lat="49.43346" lon="0.44221">
        <ele>91</ele>
        <time>2019-03-27T15:10:57Z</time>
      </trkpt>
      <trkpt lat="49.43357" lon="0.44235">
        <ele>88</ele>
        <time>2019-03-27T15:11:57Z</time>
      </trkpt>
      <trkpt lat="49.4336" lon="0.44252">
        <ele>85</ele>
        <time>2019-03-27T15:12:57Z</time>
      </trkpt>
      <trkpt lat="49.43355" lon="0.44276">
        <ele>81</ele>
        <time>2019-03-27T15:13:57Z</time>
      </trkpt>
      <trkpt lat="49.43342" lon="0.44313">
        <ele>76</ele>
        <time>2019-03-27T15:14:57Z</time>
      </trkpt>
      <trkpt lat="49.43342" lon="0.44313">
        <ele>76</ele>
        <time>2019-03-27T15:15:57Z</time>
      </trkpt>
      <trkpt lat="49.43325" lon="0.44333">
        <ele>75</ele>
        <time>2019-03-27T15:16:57Z</time>
      </trkpt>
      <trkpt lat="49.43295" lon="0.44359">
        <ele>70</ele>
        <time>2019-03-27T15:17:57Z</time>
      </trkpt>
      <trkpt lat="49.43242" lon="0.44406">
        <ele>64</ele>
        <time>2019-03-27T15:18:57Z</time>
      </trkpt>
      <trkpt lat="49.43166" lon="0.44561">
        <ele>35</ele>
        <time>2019-03-27T15:19:57Z</time>
      </trkpt>
      <trkpt lat="49.43163" lon="0.44582">
        <ele>29</ele>
        <time>2019-03-27T15:20:57Z</time>
      </trkpt>
      <trkpt lat="49.43173" lon="0.44617">
        <ele>20</ele>
        <time>2019-03-27T15:21:57Z</time>
      </trkpt>
      <trkpt lat="49.43162" lon="0.44627">
        <ele>20</ele>
        <time>2019-03-27T15:22:57Z</time>
      </trkpt>
      <trkpt lat="49.43134" lon="0.44629">
        <ele>25</ele>
        <time>2019-03-27T15:23:57Z</time>
      </trkpt>
      <trkpt lat="49.43081" lon="0.44672">
        <ele>22</ele>
        <time>2019-03-27T15:24:57Z</time>
      </trkpt>
      <trkpt lat="49.43046" lon="0.44708">
        <ele>21</ele>
        <time>2019-03-27T15:25:57Z</time>
      </trkpt>
      <trkpt lat="49.43003" lon="0.44742">
        <ele>17</ele>
        <time>2019-03-27T15:26:57Z</time>
      </trkpt>
      <trkpt lat="49.4295" lon="0.44789">
        <ele>18</ele>
        <time>2019-03-27T15:27:57Z</time>
      </trkpt>
      <trkpt lat="49.42933" lon="0.44807">
        <ele>17</ele>
        <time>2019-03-27T15:28:57Z</time>
      </trkpt>
      <trkpt lat="49.4291" lon="0.44842">
        <ele>12</ele>
        <time>2019-03-27T15:29:57Z</time>
      </trkpt>
      <trkpt lat="49.42936" lon="0.44893">
        <ele>7</ele>
        <time>2019-03-27T15:30:57Z</time>
      </trkpt>
      <trkpt lat="49.42968" lon="0.44974">
        <ele>4</ele>
        <time>2019-03-27T15:31:57Z</time>
      </trkpt>
      <trkpt lat="49.42973" lon="0.4499">
        <ele>4</ele>
        <time>2019-03-27T15:32:57Z</time>
      </trkpt>
      <trkpt lat="49.42923" lon="0.45048">
        <ele>4</ele>
        <time>2019-03-27T15:33:57Z</time>
      </trkpt>
      <trkpt lat="49.42898" lon="0.45066">
        <ele>4</ele>
        <time>2019-03-27T15:34:57Z</time>
      </trkpt>
      <trkpt lat="49.42851" lon="0.45077">
        <ele>3</ele>
        <time>2019-03-27T15:35:57Z</time>
      </trkpt>
      <trkpt lat="49.42789" lon="0.45121">
        <ele>4</ele>
        <time>2019-03-27T15:36:57Z</time>
      </trkpt>
      <trkpt lat="49.42732" lon="0.45156">
        <ele>5</ele>
        <time>2019-03-27T15:37:57Z</time>
      </trkpt>
      <trkpt lat="49.4269" lon="0.45173">
        <ele>6</ele>
        <time>2019-03-27T15:38:57Z</time>
      </trkpt>
      <trkpt lat="49.42658" lon="0.45196">
        <ele>5</ele>
        <time>2019-03-27T15:39:57Z</time>
      </trkpt>
      <trkpt lat="49.42573" lon="0.45272">
        <ele>5</ele>
        <time>2019-03-27T15:40:57Z</time>
      </trkpt>
      <trkpt lat="49.42555" lon="0.4531">
        <ele>6</ele>
        <time>2019-03-27T15:41:57Z</time>
      </trkpt>
      <trkpt lat="49.42542" lon="0.45372">
        <ele>6</ele>
        <time>2019-03-27T15:42:57Z</time>
      </trkpt>
      <trkpt lat="49.42533" lon="0.45397">
        <ele>6</ele>
        <time>2019-03-27T15:43:57Z</time>
      </trkpt>
      <trkpt lat="49.42504" lon="0.45422">
        <ele>6</ele>
        <time>2019-03-27T15:44:57Z</time>
      </trkpt>
      <trkpt lat="49.42433" lon="0.45461">
        <ele>4</ele>
        <time>2019-03-27T15:45:57Z</time>
      </trkpt>
      <trkpt lat="49.42376" lon="0.45513">
        <ele>2</ele>
        <time>2019-03-27T15:46:57Z</time>
      </trkpt>
      <trkpt lat="49.42352" lon="0.45515">
        <ele>2</ele>
        <time>2019-03-27T15:47:57Z</time>
      </trkpt>
      <trkpt lat="49.42259" lon="0.45457">
        <ele>6</ele>
        <time>2019-03-27T15:48:57Z</time>
      </trkpt>
      <trkpt lat="49.42216" lon="0.45458">
        <ele>7</ele>
        <time>2019-03-27T15:49:57Z</time>
      </trkpt>
      <trkpt lat="49.42165" lon="0.4548">
        <ele>7</ele>
        <time>2019-03-27T15:50:57Z</time>
      </trkpt>
      <trkpt lat="49.42132" lon="0.4548">
        <ele>7</ele>
        <time>2019-03-27T15:51:57Z</time>
      </trkpt>
      <trkpt lat="49.42053" lon="0.45504">
        <ele>8</ele>
        <time>2019-03-27T15:52:57Z</time>
      </trkpt>
      <trkpt lat="49.42021" lon="0.45547">
        <ele>7</ele>
        <time>2019-03-27T15:53:57Z</time>
      </trkpt>
      <trkpt lat="49.41959" lon="0.4561">
        <ele>6</ele>
        <time>2019-03-27T15:54:57Z</time>
      </trkpt>
      <trkpt lat="49.41934" lon="0.45641">
        <ele>5</ele>
        <time>2019-03-27T15:55:57Z</time>
      </trkpt>
      <trkpt lat="49.419" lon="0.45664">
        <ele>5</ele>
        <time>2019-03-27T15:56:57Z</time>
      </trkpt>
      <trkpt lat="49.41858" lon="0.45682">
        <ele>7</ele>
        <time>2019-03-27T15:57:57Z</time>
      </trkpt>
      <trkpt lat="49.41826" lon="0.45704">
        <ele>7</ele>
        <time>2019-03-27T15:58:57Z</time>
      </trkpt>
      <trkpt lat="49.41815" lon="0.45663">
        <ele>9</ele>
        <time>2019-03-27T15:59:57Z</time>
      </trkpt>
      <trkpt lat="49.41798" lon="0.45614">
        <ele>12</ele>
        <time>2019-03-27T16:00:57Z</time>
      </trkpt>
    </trkseg>
  </trk>
</gpx>